Time,TemperatureF,DewpointF,PressureIn,WindDirection,WindDirectionDegrees,WindSpeedMPH,WindSpeedGustMPH,Humidity,HourlyPrecipIn,Conditions,Clouds,dailyrainin,SoftwareType,DateUTC
2013-01-14 00:03:00,9.0,8.0,-100.00,NNW,330,0.0,0.0,98,-99.99,,,-99.99,,2013-01-14 06:03:00,
2013-01-14 00:12:00,8.0,7.0,-100.00,SW,235,0.0,0.0,99,-99.99,,,-99.99,,2013-01-14 06:12:00,
2013-01-14 00:22:00,8.0,7.0,-100.00,WSW,245,0.0,0.0,99,-99.99,,,-99.99,,2013-01-14 06:22:00,
2013-01-14 00:33:00,8.0,7.0,-100.00,WSW,245,0.0,0.0,99,-99.99,,,-99.99,,2013-01-14 06:33:00,
2013-01-14 00:43:00,8.0,8.0,-100.00,West,265,0.0,0.0,99,-99.99,,,-99.99,,2013-01-14 06:43:00,
2013-01-14 00:53:00,9.0,9.0,-100.00,WSW,250,0.0,0.0,99,-99.99,,,-99.99,,2013-01-14 06:53:00,
2013-01-14 01:02:00,9.0,9.0,-100.00,WSW,250,0.0,0.0,99,-99.99,,,-99.99,,2013-01-14 07:02:00,
2013-01-14 01:12:00,10.0,9.0,-100.00,WSW,255,0.0,0.0,99,-99.99,,,-99.99,,2013-01-14 07:12:00,
2013-01-14 01:22:00,10.0,10.0,-100.00,West,260,0.0,0.0,99,-99.99,,,-99.99,,2013-01-14 07:22:00,
2013-01-14 01:33:00,10.0,10.0,-100.00,West,260,0.0,0.0,99,-99.99,,,-99.99,,2013-01-14 07:33:00,
2013-01-14 01:42:00,10.0,10.0,-100.00,West,260,0.0,0.0,99,-99.99,,,-99.99,,2013-01-14 07:42:00,
2013-01-14 01:53:00,10.0,10.0,-100.00,WSW,245,0.0,0.0,99,-99.99,,,-99.99,,2013-01-14 07:53:00,
2013-01-14 02:00:00,9.0,9.0,-100.00,WSW,245,0.0,0.0,99,-99.99,,,-99.99,,2013-01-14 08:00:00,
2013-01-14 02:02:00,10.0,10.0,-100.00,WSW,245,0.0,0.0,99,-99.99,,,-99.99,,2013-01-14 08:02:00,
2013-01-14 02:12:00,9.0,9.0,-100.00,WSW,240,0.0,0.0,99,-99.99,,,-99.99,,2013-01-14 08:12:00,
2013-01-14 02:22:00,9.0,9.0,-100.00,SW,215,0.0,0.0,99,-99.99,,,-99.99,,2013-01-14 08:22:00,
2013-01-14 02:32:00,9.0,9.0,-100.00,SW,215,0.0,0.0,99,-99.99,,,-99.99,,2013-01-14 08:32:00,
2013-01-14 02:42:00,9.0,9.0,-100.00,WSW,245,0.0,0.0,99,-99.99,,,-99.99,,2013-01-14 08:42:00,
2013-01-14 02:53:00,9.0,9.0,-100.00,WSW,245,0.0,0.0,99,-99.99,,,-99.99,,2013-01-14 08:53:00,
2013-01-14 03:00:00,10.0,10.0,-100.00,West,275,0.0,0.0,99,-99.99,,,-99.99,,2013-01-14 09:00:00,
2013-01-14 03:12:00,9.0,8.0,-100.00,SW,235,0.0,0.0,99,-99.99,,,-99.99,,2013-01-14 09:12:00,
2013-01-14 03:22:00,9.0,9.0,-100.00,West,265,0.0,0.0,99,-99.99,,,-99.99,,2013-01-14 09:22:00,
2013-01-14 03:33:00,10.0,10.0,-100.00,West,275,0.0,0.0,99,-99.99,,,-99.99,,2013-01-14 09:33:00,
2013-01-14 03:43:00,10.0,10.0,-100.00,West,275,0.0,0.0,99,-99.99,,,-99.99,,2013-01-14 09:43:00,
2013-01-14 03:53:00,10.0,10.0,-100.00,West,275,0.0,0.0,99,-99.99,,,-99.99,,2013-01-14 09:53:00,
2013-01-14 04:12:00,10.0,10.0,-100.00,West,275,0.0,0.0,99,-99.99,,,-99.99,,2013-01-14 10:12:00,
2013-01-14 04:22:00,10.0,10.0,-100.00,West,270,0.0,0.0,99,-99.99,,,-99.99,,2013-01-14 10:22:00,
2013-01-14 04:32:00,10.0,10.0,-100.00,West,270,0.0,0.0,99,-99.99,,,-99.99,,2013-01-14 10:32:00,
2013-01-14 04:42:00,10.0,9.0,-100.00,WNW,295,0.0,0.0,99,-99.99,,,-99.99,,2013-01-14 10:42:00,
2013-01-14 04:53:00,10.0,10.0,-100.00,WNW,295,0.0,0.0,99,-99.99,,,-99.99,,2013-01-14 10:53:00,
2013-01-14 05:02:00,10.0,10.0,-100.00,WNW,295,0.0,0.0,99,-99.99,,,-99.99,,2013-01-14 11:02:00,
2013-01-14 05:12:00,9.0,9.0,-100.00,West,280,0.0,0.0,99,-99.99,,,-99.99,,2013-01-14 11:12:00,
2013-01-14 05:22:00,9.0,9.0,-100.00,West,270,0.0,0.0,99,-99.99,,,-99.99,,2013-01-14 11:22:00,
2013-01-14 05:32:00,9.0,9.0,-100.00,West,270,0.0,0.0,99,-99.99,,,-99.99,,2013-01-14 11:32:00,
2013-01-14 05:42:00,9.0,9.0,-100.00,West,280,0.0,0.0,99,-99.99,,,-99.99,,2013-01-14 11:42:00,
2013-01-14 05:53:00,9.0,9.0,-100.00,WNW,300,0.0,0.0,99,-99.99,,,-99.99,,2013-01-14 11:53:00,
2013-01-14 06:03:00,9.0,9.0,-100.00,WNW,300,0.0,0.0,99,-99.99,,,-99.99,,2013-01-14 12:03:00,
2013-01-14 06:12:00,9.0,9.0,-100.00,NW,305,0.0,0.0,99,-99.99,,,-99.99,,2013-01-14 12:12:00,
2013-01-14 06:23:00,9.0,8.0,-100.00,NNW,335,0.0,0.0,99,-99.99,,,-99.99,,2013-01-14 12:23:00,
2013-01-14 06:33:00,9.0,8.0,-100.00,NNW,335,0.0,0.0,99,-99.99,,,-99.99,,2013-01-14 12:33:00,
2013-01-14 06:43:00,7.0,7.0,-100.00,NNW,340,0.0,0.0,99,-99.99,,,-99.99,,2013-01-14 12:43:00,
2013-01-14 06:53:00,7.0,7.0,-100.00,NW,315,0.0,0.0,99,-99.99,,,-99.99,,2013-01-14 12:53:00,
2013-01-14 07:03:00,7.0,7.0,-100.00,NW,315,0.0,0.0,99,-99.99,,,-99.99,,2013-01-14 13:03:00,
2013-01-14 07:12:00,6.0,6.0,-100.00,NW,320,0.0,0.0,99,-99.99,,,-99.99,,2013-01-14 13:12:00,
2013-01-14 07:23:00,6.0,6.0,-100.00,WNW,285,0.0,0.0,99,-99.99,,,-99.99,,2013-01-14 13:23:00,
2013-01-14 07:33:00,6.0,5.0,-100.00,NW,320,0.0,0.0,99,-99.99,,,-99.99,,2013-01-14 13:33:00,
2013-01-14 07:43:00,6.0,5.0,-100.00,NW,320,0.0,0.0,99,-99.99,,,-99.99,,2013-01-14 13:43:00,
2013-01-14 07:53:00,6.0,5.0,-100.00,WNW,300,0.0,0.0,99,-99.99,,,-99.99,,2013-01-14 13:53:00,
2013-01-14 08:03:00,6.0,5.0,-100.00,WNW,300,0.0,0.0,99,-99.99,,,-99.99,,2013-01-14 14:03:00,
2013-01-14 08:13:00,6.0,5.0,-100.00,NW,310,0.0,0.0,99,-99.99,,,-99.99,,2013-01-14 14:13:00,
2013-01-14 08:23:00,6.0,6.0,-100.00,NW,310,0.0,0.0,99,-99.99,,,-99.99,,2013-01-14 14:23:00,
2013-01-14 08:33:00,8.0,7.0,-100.00,NW,315,0.0,0.0,99,-99.99,,,-99.99,,2013-01-14 14:33:00,
2013-01-14 08:43:00,8.0,7.0,-100.00,NW,315,0.0,0.0,99,-99.99,,,-99.99,,2013-01-14 14:43:00,
2013-01-14 08:53:00,9.0,9.0,-100.00,NW,320,0.0,0.0,99,-99.99,,,-99.99,,2013-01-14 14:53:00,
2013-01-14 09:03:00,9.0,9.0,-100.00,NW,320,0.0,0.0,99,-99.99,,,-99.99,,2013-01-14 15:03:00,
2013-01-14 09:12:00,10.0,10.0,-100.00,NW,320,0.0,0.0,99,-99.99,,,-99.99,,2013-01-14 15:12:00,
2013-01-14 09:23:00,14.0,14.0,-100.00,NNW,335,0.0,0.0,99,-99.99,,,-99.99,,2013-01-14 15:23:00,
2013-01-14 09:33:00,14.0,14.0,-100.00,NNW,335,0.0,0.0,99,-99.99,,,-99.99,,2013-01-14 15:33:00,
2013-01-14 09:43:00,15.0,14.0,-100.00,NNW,335,0.0,0.0,98,-99.99,,,-99.99,,2013-01-14 15:43:00,
2013-01-14 09:53:00,17.0,15.0,-100.00,North,350,0.0,0.0,93,-99.99,,,-99.99,,2013-01-14 15:53:00,
2013-01-14 10:03:00,17.0,15.0,-100.00,North,350,0.0,0.0,93,-99.99,,,-99.99,,2013-01-14 16:03:00,
2013-01-14 10:12:00,18.0,15.0,-100.00,NNW,335,0.0,0.0,88,-99.99,,,-99.99,,2013-01-14 16:12:00,
2013-01-14 10:23:00,18.0,14.0,-100.00,NW,320,0.0,0.0,84,-99.99,,,-99.99,,2013-01-14 16:23:00,
2013-01-14 10:33:00,18.0,14.0,-100.00,NW,320,0.0,0.0,84,-99.99,,,-99.99,,2013-01-14 16:33:00,
2013-01-14 10:43:00,17.0,12.0,-100.00,WNW,285,0.0,0.0,81,-99.99,,,-99.99,,2013-01-14 16:43:00,
2013-01-14 10:53:00,17.0,12.0,-100.00,NW,305,0.0,0.0,80,-99.99,,,-99.99,,2013-01-14 16:53:00,
2013-01-14 11:03:00,17.0,12.0,-100.00,NW,305,0.0,0.0,80,-99.99,,,-99.99,,2013-01-14 17:03:00,
2013-01-14 11:12:00,17.0,12.0,-100.00,WNW,295,0.0,0.0,79,-99.99,,,-99.99,,2013-01-14 17:12:00,
2013-01-14 11:23:00,18.0,12.0,-100.00,WNW,295,0.0,0.0,78,-99.99,,,-99.99,,2013-01-14 17:23:00,
2013-01-14 11:33:00,18.0,12.0,-100.00,WNW,295,0.0,0.0,78,-99.99,,,-99.99,,2013-01-14 17:33:00,
2013-01-14 11:43:00,20.0,13.0,-100.00,NW,305,0.0,0.0,75,-99.99,,,-99.99,,2013-01-14 17:43:00,
2013-01-14 11:54:00,20.0,12.0,-100.00,West,280,0.0,0.0,71,-99.99,,,-99.99,,2013-01-14 17:54:00,
2013-01-14 12:03:00,20.0,12.0,-100.00,West,280,0.0,0.0,71,-99.99,,,-99.99,,2013-01-14 18:03:00,
2013-01-14 12:13:00,22.0,13.0,-100.00,WNW,285,0.0,0.0,67,-99.99,,,-99.99,,2013-01-14 18:13:00,
2013-01-14 12:23:00,23.0,12.0,-100.00,NW,305,0.0,0.0,63,-99.99,,,-99.99,,2013-01-14 18:23:00,
2013-01-14 12:33:00,23.0,12.0,-100.00,NW,305,0.0,0.0,63,-99.99,,,-99.99,,2013-01-14 18:33:00,
2013-01-14 12:43:00,23.0,12.0,-100.00,West,280,0.0,0.0,63,-99.99,,,-99.99,,2013-01-14 18:43:00,
2013-01-14 12:53:00,24.0,12.0,-100.00,North,350,0.0,0.0,61,-99.99,,,-99.99,,2013-01-14 18:53:00,
2013-01-14 13:03:00,24.0,12.0,-100.00,North,350,0.0,0.0,61,-99.99,,,-99.99,,2013-01-14 19:03:00,
2013-01-14 13:12:00,26.0,13.0,-100.00,ESE,115,0.0,0.0,59,-99.99,,,-99.99,,2013-01-14 19:12:00,
2013-01-14 13:22:00,26.0,12.0,-100.00,SSW,210,0.0,0.0,56,-99.99,,,-99.99,,2013-01-14 19:22:00,
2013-01-14 13:33:00,26.0,12.0,-100.00,SSW,210,0.0,0.0,56,-99.99,,,-99.99,,2013-01-14 19:33:00,
2013-01-14 13:43:00,25.0,12.0,-100.00,WSW,240,0.0,0.0,56,-99.99,,,-99.99,,2013-01-14 19:43:00,
2013-01-14 13:53:00,26.0,12.0,-100.00,NNW,335,0.0,0.0,55,-99.99,,,-99.99,,2013-01-14 19:53:00,
2013-01-14 14:03:00,26.0,12.0,-100.00,NNW,335,0.0,0.0,55,-99.99,,,-99.99,,2013-01-14 20:03:00,
2013-01-14 14:13:00,27.0,12.0,-100.00,NNW,340,0.0,0.0,53,-99.99,,,-99.99,,2013-01-14 20:13:00,
2013-01-14 14:22:00,26.0,11.0,-100.00,NNW,340,0.0,0.0,52,-99.99,,,-99.99,,2013-01-14 20:22:00,
2013-01-14 14:33:00,26.0,11.0,-100.00,NNW,340,0.0,0.0,52,-99.99,,,-99.99,,2013-01-14 20:33:00,
2013-01-14 14:43:00,27.0,12.0,-100.00,NNW,340,0.0,0.0,51,-99.99,,,-99.99,,2013-01-14 20:43:00,
2013-01-14 14:53:00,28.0,12.0,-100.00,NW,320,0.0,0.0,50,-99.99,,,-99.99,,2013-01-14 20:53:00,
2013-01-14 15:03:00,28.0,12.0,-100.00,NW,320,0.0,0.0,50,-99.99,,,-99.99,,2013-01-14 21:03:00,
2013-01-14 15:12:00,28.0,11.0,-100.00,WNW,300,0.0,0.0,50,-99.99,,,-99.99,,2013-01-14 21:12:00,
2013-01-14 15:23:00,28.0,11.0,-100.00,NW,305,0.0,0.0,49,-99.99,,,-99.99,,2013-01-14 21:23:00,
2013-01-14 15:33:00,28.0,11.0,-100.00,NW,305,0.0,0.0,49,-99.99,,,-99.99,,2013-01-14 21:33:00,
2013-01-14 15:42:00,27.0,10.0,-100.00,NNE,20,0.0,0.0,48,-99.99,,,-99.99,,2013-01-14 21:42:00,
2013-01-14 15:53:00,27.0,9.0,-100.00,ENE,60,0.0,0.0,47,-99.99,,,-99.99,,2013-01-14 21:53:00,
2013-01-14 16:03:00,27.0,9.0,-100.00,ENE,60,0.0,0.0,47,-99.99,,,-99.99,,2013-01-14 22:03:00,
2013-01-14 16:12:00,27.0,10.0,-100.00,East,85,0.0,0.0,47,-99.99,,,-99.99,,2013-01-14 22:12:00,
2013-01-14 16:23:00,27.0,9.0,-100.00,NE,50,0.0,0.0,47,-99.99,,,-99.99,,2013-01-14 22:23:00,
2013-01-14 16:33:00,27.0,9.0,-100.00,NE,50,0.0,0.0,47,-99.99,,,-99.99,,2013-01-14 22:33:00,
2013-01-14 16:43:00,27.0,9.0,-100.00,NE,50,0.0,0.0,47,-99.99,,,-99.99,,2013-01-14 22:43:00,
2013-01-14 20:00:00,-999.0,-99.9,-100.00,West,280,0.0,0.0,-999,-99.99,,,-99.99,,2013-01-15 02:00:00,
2013-01-14 21:33:00,13.0,10.0,-100.00,NW,305,0.0,0.0,90,-99.99,,,-99.99,,2013-01-15 03:33:00,
2013-01-14 21:42:00,12.0,10.0,-100.00,NNW,330,0.0,0.0,92,-99.99,,,-99.99,,2013-01-15 03:42:00,
2013-01-14 21:53:00,11.0,9.0,-100.00,NW,310,0.0,0.0,92,-99.99,,,-99.99,,2013-01-15 03:53:00,
2013-01-14 22:02:00,11.0,9.0,-100.00,NW,310,0.0,0.0,92,-99.99,,,-99.99,,2013-01-15 04:02:00,
2013-01-14 22:12:00,11.0,9.0,-100.00,NW,315,0.0,0.0,94,-99.99,,,-99.99,,2013-01-15 04:12:00,
2013-01-14 22:22:00,10.0,9.0,-100.00,NNW,330,0.0,0.0,95,-99.99,,,-99.99,,2013-01-15 04:22:00,
2013-01-14 22:32:00,10.0,-5.0,-100.00,NNW,330,0.0,0.0,50,-99.99,,,-99.99,,2013-01-15 04:32:00,
2013-01-14 22:42:00,10.0,-5.0,-100.00,NNW,330,0.0,0.0,50,-99.99,,,-99.99,,2013-01-15 04:42:00,
2013-01-14 22:52:00,9.0,9.0,-100.00,NW,310,0.0,0.0,96,-99.99,,,-99.99,,2013-01-15 04:52:00,
2013-01-14 23:03:00,9.0,9.0,-100.00,NW,310,0.0,0.0,96,-99.99,,,-99.99,,2013-01-15 05:03:00,
2013-01-14 23:12:00,9.0,9.0,-100.00,SW,230,0.0,0.0,97,-99.99,,,-99.99,,2013-01-15 05:12:00,
2013-01-14 23:22:00,9.0,9.0,-100.00,SW,220,0.0,0.0,98,-99.99,,,-99.99,,2013-01-15 05:22:00,
2013-01-14 23:33:00,9.0,9.0,-100.00,SW,220,0.0,0.0,98,-99.99,,,-99.99,,2013-01-15 05:33:00,
2013-01-14 23:42:00,10.0,10.0,-100.00,NNE,15,0.0,0.0,99,-99.99,,,-99.99,,2013-01-15 05:42:00,
2013-01-14 23:53:00,9.0,9.0,-100.00,North,355,0.0,0.0,99,-99.99,,,-99.99,,2013-01-15 05:53:00,